sensor_id;sensor_type;location;lat;lon;timestamp;P1;durP1;ratioP1;P2;durP2;ratioP2
78296;SDS011;67555;47.660;19.622;2023-04-01T00:01:49;5.00;;;2.58;;
78296;SDS011;67555;47.660;19.622;2023-04-01T00:04:17;3.28;;;2.00;;
78296;SDS011;67555;47.660;19.622;2023-04-01T00:06:42;3.90;;;1.70;;
78296;SDS011;67555;47.660;19.622;2023-04-01T00:09:08;3.00;;;1.75;;
78296;SDS011;67555;47.660;19.622;2023-04-01T00:11:34;3.75;;;1.83;;
78296;SDS011;67555;47.660;19.622;2023-04-01T00:14:00;3.25;;;2.17;;
78296;SDS011;67555;47.660;19.622;2023-04-01T00:16:26;5.38;;;1.92;;
78296;SDS011;67555;47.660;19.622;2023-04-01T00:18:51;3.92;;;1.92;;
78296;SDS011;67555;47.660;19.622;2023-04-01T00:21:18;7.10;;;2.08;;
78296;SDS011;67555;47.660;19.622;2023-04-01T00:23:45;6.28;;;2.35;;
78296;SDS011;67555;47.660;19.622;2023-04-01T00:26:11;4.20;;;2.13;;
78296;SDS011;67555;47.660;19.622;2023-04-01T00:28:37;3.58;;;2.17;;
78296;SDS011;67555;47.660;19.622;2023-04-01T00:31:06;6.80;;;2.47;;
78296;SDS011;67555;47.660;19.622;2023-04-01T00:33:33;3.55;;;2.13;;
78296;SDS011;67555;47.660;19.622;2023-04-01T00:36:11;4.15;;;2.60;;
78296;SDS011;67555;47.660;19.622;2023-04-01T00:38:39;5.03;;;1.90;;
78296;SDS011;67555;47.660;19.622;2023-04-01T00:41:06;4.78;;;2.42;;
78296;SDS011;67555;47.660;19.622;2023-04-01T00:43:32;3.80;;;2.28;;
78296;SDS011;67555;47.660;19.622;2023-04-01T00:45:59;4.18;;;2.38;;
78296;SDS011;67555;47.660;19.622;2023-04-01T00:48:27;4.45;;;2.35;;
78296;SDS011;67555;47.660;19.622;2023-04-01T00:51:08;3.25;;;2.15;;
78296;SDS011;67555;47.660;19.622;2023-04-01T00:53:38;5.75;;;2.35;;
78296;SDS011;67555;47.660;19.622;2023-04-01T00:56:13;2.97;;;2.38;;
78296;SDS011;67555;47.660;19.622;2023-04-01T00:59:00;6.45;;;3.00;;
78296;SDS011;67555;47.660;19.622;2023-04-01T01:01:30;7.80;;;2.78;;
78296;SDS011;67555;47.660;19.622;2023-04-01T01:03:57;5.38;;;2.25;;
78296;SDS011;67555;47.660;19.622;2023-04-01T01:12:13;7.30;;;2.28;;
78296;SDS011;67555;47.660;19.622;2023-04-01T01:25:54;7.10;;;2.88;;
78296;SDS011;67555;47.660;19.622;2023-04-01T01:37:03;7.13;;;3.00;;
78296;SDS011;67555;47.660;19.622;2023-04-01T01:39:36;4.72;;;2.38;;
78296;SDS011;67555;47.660;19.622;2023-04-01T01:42:04;10.88;;;3.20;;
78296;SDS011;67555;47.660;19.622;2023-04-01T01:44:33;6.90;;;3.22;;
78296;SDS011;67555;47.660;19.622;2023-04-01T01:47:00;6.97;;;3.85;;
78296;SDS011;67555;47.660;19.622;2023-04-01T01:49:27;7.07;;;4.43;;
78296;SDS011;67555;47.660;19.622;2023-04-01T01:51:55;6.55;;;3.90;;
78296;SDS011;67555;47.660;19.622;2023-04-01T01:54:21;6.93;;;3.63;;
78296;SDS011;67555;47.660;19.622;2023-04-01T01:56:48;5.80;;;4.53;;
78296;SDS011;67555;47.660;19.622;2023-04-01T01:59:17;8.68;;;4.40;;
78296;SDS011;67555;47.660;19.622;2023-04-01T02:01:48;7.22;;;4.50;;
78296;SDS011;67555;47.660;19.622;2023-04-01T02:04:17;8.23;;;4.65;;
78296;SDS011;67555;47.660;19.622;2023-04-01T02:06:47;11.27;;;4.25;;
78296;SDS011;67555;47.660;19.622;2023-04-01T02:09:22;11.93;;;4.55;;
78296;SDS011;67555;47.660;19.622;2023-04-01T02:14:17;11.43;;;4.85;;
78296;SDS011;67555;47.660;19.622;2023-04-01T02:19:46;10.45;;;5.10;;
78296;SDS011;67555;47.660;19.622;2023-04-01T02:22:31;7.72;;;4.78;;
78296;SDS011;67555;47.660;19.622;2023-04-01T02:25:46;13.73;;;4.32;;
78296;SDS011;67555;47.660;19.622;2023-04-01T02:27:54;8.13;;;4.63;;
78296;SDS011;67555;47.660;19.622;2023-04-01T02:30:23;9.73;;;4.40;;
78296;SDS011;67555;47.660;19.622;2023-04-01T02:32:51;8.30;;;4.88;;
78296;SDS011;67555;47.660;19.622;2023-04-01T02:35:18;11.63;;;4.15;;
78296;SDS011;67555;47.660;19.622;2023-04-01T02:37:45;9.63;;;4.28;;
78296;SDS011;67555;47.660;19.622;2023-04-01T02:40:14;8.60;;;4.00;;
78296;SDS011;67555;47.660;19.622;2023-04-01T02:42:41;7.75;;;4.35;;
78296;SDS011;67555;47.660;19.622;2023-04-01T02:45:07;8.23;;;3.88;;
78296;SDS011;67555;47.660;19.622;2023-04-01T02:47:34;8.52;;;4.15;;
78296;SDS011;67555;47.660;19.622;2023-04-01T02:50:01;10.52;;;4.63;;
78296;SDS011;67555;47.660;19.622;2023-04-01T02:52:28;9.20;;;4.03;;
78296;SDS011;67555;47.660;19.622;2023-04-01T02:54:55;9.70;;;3.88;;
78296;SDS011;67555;47.660;19.622;2023-04-01T02:57:22;10.80;;;4.63;;
78296;SDS011;67555;47.660;19.622;2023-04-01T02:59:48;7.38;;;4.63;;
78296;SDS011;67555;47.660;19.622;2023-04-01T03:02:14;8.15;;;3.35;;
78296;SDS011;67555;47.660;19.622;2023-04-01T03:04:40;7.60;;;4.18;;
78296;SDS011;67555;47.660;19.622;2023-04-01T03:07:06;9.48;;;3.92;;
78296;SDS011;67555;47.660;19.622;2023-04-01T03:09:34;11.43;;;4.80;;
78296;SDS011;67555;47.660;19.622;2023-04-01T03:12:01;5.28;;;3.33;;
78296;SDS011;67555;47.660;19.622;2023-04-01T03:14:27;5.90;;;3.35;;
78296;SDS011;67555;47.660;19.622;2023-04-01T03:16:53;6.15;;;3.75;;
78296;SDS011;67555;47.660;19.622;2023-04-01T03:19:18;8.27;;;3.55;;
78296;SDS011;67555;47.660;19.622;2023-04-01T03:21:44;6.43;;;3.60;;
78296;SDS011;67555;47.660;19.622;2023-04-01T03:24:10;5.82;;;3.80;;
78296;SDS011;67555;47.660;19.622;2023-04-01T03:26:36;10.93;;;3.28;;
78296;SDS011;67555;47.660;19.622;2023-04-01T03:29:01;6.82;;;3.33;;
78296;SDS011;67555;47.660;19.622;2023-04-01T03:31:27;7.43;;;2.80;;
78296;SDS011;67555;47.660;19.622;2023-04-01T03:33:53;5.43;;;3.40;;
78296;SDS011;67555;47.660;19.622;2023-04-01T03:36:19;7.47;;;3.08;;
78296;SDS011;67555;47.660;19.622;2023-04-01T03:38:45;8.30;;;3.85;;
78296;SDS011;67555;47.660;19.622;2023-04-01T03:41:14;8.80;;;4.25;;
78296;SDS011;67555;47.660;19.622;2023-04-01T03:43:41;10.77;;;5.05;;
78296;SDS011;67555;47.660;19.622;2023-04-01T03:46:07;9.23;;;5.15;;
78296;SDS011;67555;47.660;19.622;2023-04-01T03:48:33;6.55;;;4.25;;
78296;SDS011;67555;47.660;19.622;2023-04-01T03:50:58;6.82;;;3.55;;
78296;SDS011;67555;47.660;19.622;2023-04-01T03:53:24;10.07;;;4.85;;
78296;SDS011;67555;47.660;19.622;2023-04-01T03:55:50;6.00;;;3.67;;
78296;SDS011;67555;47.660;19.622;2023-04-01T03:58:18;8.38;;;4.30;;
78296;SDS011;67555;47.660;19.622;2023-04-01T04:00:44;8.93;;;4.72;;
78296;SDS011;67555;47.660;19.622;2023-04-01T04:03:10;9.35;;;4.32;;
78296;SDS011;67555;47.660;19.622;2023-04-01T04:05:36;6.75;;;3.92;;
78296;SDS011;67555;47.660;19.622;2023-04-01T04:08:02;11.07;;;5.05;;
78296;SDS011;67555;47.660;19.622;2023-04-01T04:10:28;7.28;;;4.32;;
78296;SDS011;67555;47.660;19.622;2023-04-01T04:12:54;9.13;;;3.60;;
78296;SDS011;67555;47.660;19.622;2023-04-01T04:15:20;14.05;;;4.10;;
78296;SDS011;67555;47.660;19.622;2023-04-01T04:17:46;13.13;;;4.00;;
78296;SDS011;67555;47.660;19.622;2023-04-01T04:20:13;8.27;;;3.70;;
78296;SDS011;67555;47.660;19.622;2023-04-01T04:22:38;7.07;;;3.47;;
78296;SDS011;67555;47.660;19.622;2023-04-01T04:25:05;7.65;;;3.65;;
78296;SDS011;67555;47.660;19.622;2023-04-01T04:27:31;12.48;;;4.13;;
78296;SDS011;67555;47.660;19.622;2023-04-01T04:29:57;12.25;;;3.88;;
78296;SDS011;67555;47.660;19.622;2023-04-01T04:32:23;6.88;;;3.72;;
78296;SDS011;67555;47.660;19.622;2023-04-01T04:34:49;8.57;;;3.72;;
78296;SDS011;67555;47.660;19.622;2023-04-01T04:37:14;6.35;;;3.85;;
78296;SDS011;67555;47.660;19.622;2023-04-01T04:39:40;8.30;;;3.58;;
78296;SDS011;67555;47.660;19.622;2023-04-01T04:42:06;5.53;;;3.65;;
78296;SDS011;67555;47.660;19.622;2023-04-01T04:44:31;8.02;;;3.42;;
78296;SDS011;67555;47.660;19.622;2023-04-01T04:46:57;5.20;;;3.47;;
78296;SDS011;67555;47.660;19.622;2023-04-01T04:49:23;5.85;;;3.53;;
78296;SDS011;67555;47.660;19.622;2023-04-01T04:51:48;6.57;;;3.58;;
78296;SDS011;67555;47.660;19.622;2023-04-01T04:54:14;7.25;;;3.60;;
78296;SDS011;67555;47.660;19.622;2023-04-01T04:56:40;10.60;;;2.78;;
78296;SDS011;67555;47.660;19.622;2023-04-01T04:59:06;9.68;;;3.58;;
78296;SDS011;67555;47.660;19.622;2023-04-01T05:01:32;9.75;;;3.97;;
78296;SDS011;67555;47.660;19.622;2023-04-01T05:03:58;4.57;;;2.85;;
78296;SDS011;67555;47.660;19.622;2023-04-01T05:06:25;4.72;;;2.70;;
78296;SDS011;67555;47.660;19.622;2023-04-01T05:08:54;7.60;;;3.17;;
78296;SDS011;67555;47.660;19.622;2023-04-01T05:11:21;3.97;;;2.63;;
78296;SDS011;67555;47.660;19.622;2023-04-01T05:13:46;5.63;;;2.60;;
78296;SDS011;67555;47.660;19.622;2023-04-01T05:16:16;7.22;;;2.72;;
78296;SDS011;67555;47.660;19.622;2023-04-01T05:18:43;4.45;;;2.65;;
78296;SDS011;67555;47.660;19.622;2023-04-01T05:21:10;8.48;;;2.63;;
78296;SDS011;67555;47.660;19.622;2023-04-01T05:23:38;6.90;;;3.03;;
78296;SDS011;67555;47.660;19.622;2023-04-01T05:26:05;5.60;;;2.90;;
78296;SDS011;67555;47.660;19.622;2023-04-01T05:28:31;6.05;;;2.65;;
78296;SDS011;67555;47.660;19.622;2023-04-01T05:31:00;3.78;;;2.78;;
78296;SDS011;67555;47.660;19.622;2023-04-01T05:33:28;6.80;;;2.70;;
78296;SDS011;67555;47.660;19.622;2023-04-01T05:35:54;4.45;;;2.83;;
78296;SDS011;67555;47.660;19.622;2023-04-01T05:38:20;4.57;;;2.58;;
78296;SDS011;67555;47.660;19.622;2023-04-01T05:40:46;2.30;;;1.83;;
78296;SDS011;67555;47.660;19.622;2023-04-01T05:43:12;5.22;;;2.45;;
78296;SDS011;67555;47.660;19.622;2023-04-01T05:45:38;5.22;;;2.60;;
78296;SDS011;67555;47.660;19.622;2023-04-01T05:48:04;3.58;;;2.67;;
78296;SDS011;67555;47.660;19.622;2023-04-01T05:50:30;4.30;;;2.78;;
78296;SDS011;67555;47.660;19.622;2023-04-01T05:52:56;5.88;;;2.70;;
78296;SDS011;67555;47.660;19.622;2023-04-01T05:55:22;3.08;;;2.05;;
78296;SDS011;67555;47.660;19.622;2023-04-01T05:57:48;5.13;;;2.50;;
78296;SDS011;67555;47.660;19.622;2023-04-01T06:00:15;3.53;;;2.17;;
78296;SDS011;67555;47.660;19.622;2023-04-01T06:02:43;3.63;;;1.92;;
78296;SDS011;67555;47.660;19.622;2023-04-01T06:05:19;3.63;;;2.53;;
78296;SDS011;67555;47.660;19.622;2023-04-01T06:07:47;3.72;;;2.17;;
78296;SDS011;67555;47.660;19.622;2023-04-01T06:10:17;5.97;;;2.13;;
78296;SDS011;67555;47.660;19.622;2023-04-01T06:15:23;2.38;;;1.55;;
78296;SDS011;67555;47.660;19.622;2023-04-01T06:18:09;2.28;;;1.60;;
78296;SDS011;67555;47.660;19.622;2023-04-01T06:20:42;5.10;;;2.25;;
78296;SDS011;67555;47.660;19.622;2023-04-01T06:48:37;6.20;;;2.40;;
78296;SDS011;67555;47.660;19.622;2023-04-01T06:51:31;3.20;;;2.15;;
78296;SDS011;67555;47.660;19.622;2023-04-01T06:56:47;3.88;;;2.22;;
78296;SDS011;67555;47.660;19.622;2023-04-01T06:59:27;4.85;;;1.98;;
78296;SDS011;67555;47.660;19.622;2023-04-01T07:01:55;2.15;;;1.85;;
78296;SDS011;67555;47.660;19.622;2023-04-01T07:13:34;4.10;;;2.67;;
78296;SDS011;67555;47.660;19.622;2023-04-01T07:16:17;3.58;;;2.30;;
78296;SDS011;67555;47.660;19.622;2023-04-01T07:19:11;4.78;;;2.38;;
78296;SDS011;67555;47.660;19.622;2023-04-01T07:21:51;5.35;;;1.70;;
78296;SDS011;67555;47.660;19.622;2023-04-01T07:24:23;4.38;;;1.98;;
78296;SDS011;67555;47.660;19.622;2023-04-01T07:26:53;8.10;;;2.40;;
78296;SDS011;67555;47.660;19.622;2023-04-01T07:29:21;7.82;;;3.25;;
78296;SDS011;67555;47.660;19.622;2023-04-01T07:37:39;3.15;;;1.73;;
78296;SDS011;67555;47.660;19.622;2023-04-01T07:43:07;1.45;;;1.35;;
78296;SDS011;67555;47.660;19.622;2023-04-01T07:45:42;4.70;;;1.98;;
78296;SDS011;67555;47.660;19.622;2023-04-01T07:51:19;5.82;;;1.67;;
78296;SDS011;67555;47.660;19.622;2023-04-01T07:56:58;3.85;;;2.13;;
78296;SDS011;67555;47.660;19.622;2023-04-01T08:02:26;1.38;;;1.27;;
78296;SDS011;67555;47.660;19.622;2023-04-01T08:21:51;1.70;;;1.00;;
78296;SDS011;67555;47.660;19.622;2023-04-01T08:26:58;1.58;;;1.02;;
78296;SDS011;67555;47.660;19.622;2023-04-01T08:29:31;2.58;;;1.40;;
78296;SDS011;67555;47.660;19.622;2023-04-01T08:34:38;4.32;;;1.23;;
78296;SDS011;67555;47.660;19.622;2023-04-01T08:37:17;12.25;;;5.30;;
78296;SDS011;67555;47.660;19.622;2023-04-01T08:40:01;12.40;;;5.07;;
78296;SDS011;67555;47.660;19.622;2023-04-01T08:53:15;3.78;;;2.13;;
78296;SDS011;67555;47.660;19.622;2023-04-01T09:11:38;3.00;;;0.90;;
78296;SDS011;67555;47.660;19.622;2023-04-01T09:19:25;1.27;;;1.05;;
78296;SDS011;67555;47.660;19.622;2023-04-01T09:34:20;3.88;;;1.98;;
78296;SDS011;67555;47.660;19.622;2023-04-01T09:39:59;4.05;;;2.55;;
78296;SDS011;67555;47.660;19.622;2023-04-01T09:45:07;2.45;;;2.00;;
78296;SDS011;67555;47.660;19.622;2023-04-01T09:50:23;5.15;;;2.65;;
78296;SDS011;67555;47.660;19.622;2023-04-01T09:56:26;1.30;;;1.20;;
78296;SDS011;67555;47.660;19.622;2023-04-01T10:02:33;2.60;;;0.85;;
78296;SDS011;67555;47.660;19.622;2023-04-01T10:16:27;2.22;;;1.15;;
78296;SDS011;67555;47.660;19.622;2023-04-01T10:19:08;0.88;;;0.57;;
78296;SDS011;67555;47.660;19.622;2023-04-01T10:41:57;3.88;;;1.80;;
78296;SDS011;67555;47.660;19.622;2023-04-01T11:18:01;6.32;;;1.55;;
78296;SDS011;67555;47.660;19.622;2023-04-01T11:29:03;2.53;;;1.60;;
78296;SDS011;67555;47.660;19.622;2023-04-01T11:31:40;2.50;;;1.55;;
78296;SDS011;67555;47.660;19.622;2023-04-01T11:35:04;2.60;;;1.80;;
78296;SDS011;67555;47.660;19.622;2023-04-01T11:37:46;2.35;;;1.55;;
78296;SDS011;67555;47.660;19.622;2023-04-01T11:42:59;2.55;;;1.45;;
78296;SDS011;67555;47.660;19.622;2023-04-01T11:45:46;8.90;;;1.80;;
78296;SDS011;67555;47.660;19.622;2023-04-01T11:48:51;5.40;;;1.58;;
78296;SDS011;67555;47.660;19.622;2023-04-01T11:57:43;2.38;;;1.40;;
78296;SDS011;67555;47.660;19.622;2023-04-01T12:08:54;5.30;;;1.67;;
78296;SDS011;67555;47.660;19.622;2023-04-01T12:14:17;7.35;;;1.63;;
78296;SDS011;67555;47.660;19.622;2023-04-01T12:19:53;3.40;;;1.00;;
78296;SDS011;67555;47.660;19.622;2023-04-01T12:28:28;0.80;;;0.80;;
78296;SDS011;67555;47.660;19.622;2023-04-01T12:31:25;11.13;;;5.15;;
78296;SDS011;67555;47.660;19.622;2023-04-01T12:47:36;2.10;;;1.00;;
78296;SDS011;67555;47.660;19.622;2023-04-01T12:50:13;1.13;;;1.00;;
78296;SDS011;67555;47.660;19.622;2023-04-01T12:55:41;5.78;;;1.40;;
78296;SDS011;67555;47.660;19.622;2023-04-01T13:16:57;2.15;;;1.15;;
78296;SDS011;67555;47.660;19.622;2023-04-01T13:22:30;2.20;;;0.88;;
78296;SDS011;67555;47.660;19.622;2023-04-01T13:28:04;4.22;;;1.23;;
78296;SDS011;67555;47.660;19.622;2023-04-01T13:30:37;1.77;;;1.15;;
78296;SDS011;67555;47.660;19.622;2023-04-01T13:44:33;4.22;;;2.05;;
78296;SDS011;67555;47.660;19.622;2023-04-01T13:52:54;10.57;;;3.88;;
78296;SDS011;67555;47.660;19.622;2023-04-01T14:00:38;15.38;;;6.93;;
78296;SDS011;67555;47.660;19.622;2023-04-01T14:13:56;3.63;;;1.85;;
78296;SDS011;67555;47.660;19.622;2023-04-01T14:23:03;1.73;;;1.60;;
78296;SDS011;67555;47.660;19.622;2023-04-01T14:25:58;1.50;;;1.00;;
78296;SDS011;67555;47.660;19.622;2023-04-01T14:48:32;4.40;;;1.05;;
78296;SDS011;67555;47.660;19.622;2023-04-01T14:51:22;3.72;;;1.10;;
78296;SDS011;67555;47.660;19.622;2023-04-01T14:56:37;1.85;;;1.00;;
78296;SDS011;67555;47.660;19.622;2023-04-01T14:59:13;4.20;;;1.50;;
78296;SDS011;67555;47.660;19.622;2023-04-01T15:02:14;0.73;;;0.60;;
78296;SDS011;67555;47.660;19.622;2023-04-01T15:05:03;1.45;;;1.27;;
78296;SDS011;67555;47.660;19.622;2023-04-01T15:26:44;3.97;;;1.70;;
78296;SDS011;67555;47.660;19.622;2023-04-01T15:43:47;0.93;;;0.52;;
78296;SDS011;67555;47.660;19.622;2023-04-01T15:54:56;11.93;;;1.70;;
78296;SDS011;67555;47.660;19.622;2023-04-01T16:21:48;1.40;;;1.30;;
78296;SDS011;67555;47.660;19.622;2023-04-01T16:30:38;2.95;;;1.70;;
78296;SDS011;67555;47.660;19.622;2023-04-01T16:35:45;5.93;;;2.00;;
78296;SDS011;67555;47.660;19.622;2023-04-01T16:41:07;9.27;;;3.60;;
78296;SDS011;67555;47.660;19.622;2023-04-01T16:43:46;14.07;;;5.97;;
78296;SDS011;67555;47.660;19.622;2023-04-01T16:54:55;39.28;;;17.30;;
78296;SDS011;67555;47.660;19.622;2023-04-01T16:57:31;35.03;;;16.08;;
78296;SDS011;67555;47.660;19.622;2023-04-01T17:00:15;42.53;;;14.70;;
78296;SDS011;67555;47.660;19.622;2023-04-01T17:02:52;47.25;;;21.60;;
78296;SDS011;67555;47.660;19.622;2023-04-01T17:14:40;56.85;;;22.88;;
78296;SDS011;67555;47.660;19.622;2023-04-01T17:17:34;67.15;;;23.40;;
78296;SDS011;67555;47.660;19.622;2023-04-01T17:20:12;76.20;;;25.48;;
78296;SDS011;67555;47.660;19.622;2023-04-01T17:33:49;6.90;;;2.80;;
78296;SDS011;67555;47.660;19.622;2023-04-01T17:36:42;3.22;;;1.80;;
78296;SDS011;67555;47.660;19.622;2023-04-01T17:55:25;2.05;;;1.55;;
78296;SDS011;67555;47.660;19.622;2023-04-01T17:58:29;8.73;;;2.05;;
78296;SDS011;67555;47.660;19.622;2023-04-01T18:06:36;3.15;;;1.38;;
78296;SDS011;67555;47.660;19.622;2023-04-01T18:12:36;3.40;;;1.83;;
78296;SDS011;67555;47.660;19.622;2023-04-01T18:15:40;1.98;;;1.33;;
78296;SDS011;67555;47.660;19.622;2023-04-01T18:21:24;10.30;;;3.88;;
78296;SDS011;67555;47.660;19.622;2023-04-01T18:23:58;5.22;;;3.72;;
78296;SDS011;67555;47.660;19.622;2023-04-01T18:26:32;13.75;;;8.63;;
78296;SDS011;67555;47.660;19.622;2023-04-01T18:29:11;7.65;;;4.03;;
78296;SDS011;67555;47.660;19.622;2023-04-01T18:31:51;5.68;;;2.70;;
78296;SDS011;67555;47.660;19.622;2023-04-01T18:37:39;8.38;;;4.25;;
78296;SDS011;67555;47.660;19.622;2023-04-01T18:45:51;4.90;;;3.00;;
78296;SDS011;67555;47.660;19.622;2023-04-01T18:56:30;4.72;;;1.90;;
78296;SDS011;67555;47.660;19.622;2023-04-01T18:59:08;3.78;;;1.98;;
78296;SDS011;67555;47.660;19.622;2023-04-01T19:07:49;6.00;;;1.90;;
78296;SDS011;67555;47.660;19.622;2023-04-01T19:10:39;2.55;;;1.60;;
78296;SDS011;67555;47.660;19.622;2023-04-01T19:30:05;5.22;;;2.75;;
78296;SDS011;67555;47.660;19.622;2023-04-01T19:41:11;7.88;;;2.50;;
78296;SDS011;67555;47.660;19.622;2023-04-01T19:44:21;5.28;;;2.42;;
78296;SDS011;67555;47.660;19.622;2023-04-01T19:52:10;9.00;;;2.65;;
78296;SDS011;67555;47.660;19.622;2023-04-01T19:55:15;6.05;;;2.65;;
78296;SDS011;67555;47.660;19.622;2023-04-01T20:03:38;9.00;;;3.35;;
78296;SDS011;67555;47.660;19.622;2023-04-01T20:12:08;4.53;;;3.13;;
78296;SDS011;67555;47.660;19.622;2023-04-01T20:14:50;6.55;;;3.78;;
78296;SDS011;67555;47.660;19.622;2023-04-01T20:18:01;5.78;;;2.95;;
78296;SDS011;67555;47.660;19.622;2023-04-01T20:25:15;5.85;;;3.03;;
78296;SDS011;67555;47.660;19.622;2023-04-01T20:27:49;9.93;;;3.92;;
78296;SDS011;67555;47.660;19.622;2023-04-01T20:36:16;6.30;;;2.92;;
78296;SDS011;67555;47.660;19.622;2023-04-01T20:47:39;5.78;;;3.05;;
78296;SDS011;67555;47.660;19.622;2023-04-01T20:50:18;9.18;;;3.25;;
78296;SDS011;67555;47.660;19.622;2023-04-01T21:04:42;7.63;;;3.67;;
78296;SDS011;67555;47.660;19.622;2023-04-01T21:07:41;4.28;;;2.40;;
78296;SDS011;67555;47.660;19.622;2023-04-01T21:13:01;5.60;;;2.60;;
78296;SDS011;67555;47.660;19.622;2023-04-01T21:18:23;3.40;;;2.10;;
78296;SDS011;67555;47.660;19.622;2023-04-01T21:20:57;5.32;;;2.70;;
78296;SDS011;67555;47.660;19.622;2023-04-01T21:23:48;3.05;;;2.40;;
78296;SDS011;67555;47.660;19.622;2023-04-01T21:26:48;4.15;;;2.75;;
78296;SDS011;67555;47.660;19.622;2023-04-01T22:05:33;10.45;;;4.10;;
78296;SDS011;67555;47.660;19.622;2023-04-01T22:10:49;10.45;;;4.05;;
78296;SDS011;67555;47.660;19.622;2023-04-01T22:13:35;5.25;;;3.65;;
78296;SDS011;67555;47.660;19.622;2023-04-01T22:16:34;6.97;;;3.40;;
78296;SDS011;67555;47.660;19.622;2023-04-01T22:32:55;4.60;;;3.08;;
78296;SDS011;67555;47.660;19.622;2023-04-01T22:35:52;5.70;;;3.30;;
78296;SDS011;67555;47.660;19.622;2023-04-01T22:44:28;6.28;;;2.78;;
78296;SDS011;67555;47.660;19.622;2023-04-01T22:49:47;8.18;;;3.63;;
78296;SDS011;67555;47.660;19.622;2023-04-01T22:52:58;4.40;;;3.00;;
78296;SDS011;67555;47.660;19.622;2023-04-01T22:55:42;7.03;;;3.33;;
78296;SDS011;67555;47.660;19.622;2023-04-01T22:58:15;6.95;;;3.10;;
78296;SDS011;67555;47.660;19.622;2023-04-01T23:00:48;5.15;;;3.75;;
78296;SDS011;67555;47.660;19.622;2023-04-01T23:03:33;6.30;;;3.35;;
78296;SDS011;67555;47.660;19.622;2023-04-01T23:06:04;5.43;;;2.70;;
78296;SDS011;67555;47.660;19.622;2023-04-01T23:11:15;4.95;;;2.28;;
78296;SDS011;67555;47.660;19.622;2023-04-01T23:13:45;5.03;;;2.13;;
78296;SDS011;67555;47.660;19.622;2023-04-01T23:16:18;4.20;;;2.53;;
78296;SDS011;67555;47.660;19.622;2023-04-01T23:18:59;4.90;;;2.75;;
78296;SDS011;67555;47.660;19.622;2023-04-01T23:22:04;4.07;;;2.45;;
78296;SDS011;67555;47.660;19.622;2023-04-01T23:24:46;3.80;;;2.97;;
78296;SDS011;67555;47.660;19.622;2023-04-01T23:29:55;5.30;;;3.55;;
78296;SDS011;67555;47.660;19.622;2023-04-01T23:32:23;8.88;;;3.03;;
78296;SDS011;67555;47.660;19.622;2023-04-01T23:34:55;3.95;;;2.60;;
78296;SDS011;67555;47.660;19.622;2023-04-01T23:37:23;6.57;;;2.38;;
78296;SDS011;67555;47.660;19.622;2023-04-01T23:39:50;3.33;;;2.58;;
78296;SDS011;67555;47.660;19.622;2023-04-01T23:42:21;4.30;;;2.63;;
78296;SDS011;67555;47.660;19.622;2023-04-01T23:44:51;4.40;;;3.22;;
78296;SDS011;67555;47.660;19.622;2023-04-01T23:47:21;6.32;;;3.20;;
78296;SDS011;67555;47.660;19.622;2023-04-01T23:50:00;3.50;;;2.38;;
78296;SDS011;67555;47.660;19.622;2023-04-01T23:52:35;3.95;;;2.55;;
78296;SDS011;67555;47.660;19.622;2023-04-01T23:55:25;3.38;;;2.25;;
